createdAt,value
2023-03-16T04:40:58.380Z,0.43
2023-03-16T04:44:02.873Z,1.00
2023-03-16T04:50:10.630Z,0.70
2023-03-16T04:53:13.578Z,1.27
2023-03-16T04:56:20.101Z,0.80
2023-03-16T04:59:23.641Z,0.55
2023-03-16T05:02:27.627Z,1.62
2023-03-16T05:05:31.256Z,0.80
2023-03-16T05:08:36.922Z,1.50
2023-03-16T05:14:43.395Z,1.12
2023-03-16T05:17:46.980Z,0.75
2023-03-16T05:20:53.527Z,1.05
2023-03-16T05:23:56.775Z,1.05
2023-03-16T05:26:59.665Z,1.17
2023-03-16T05:30:02.408Z,1.20
2023-03-16T05:33:05.978Z,1.45
2023-03-16T05:39:13.312Z,1.67
2023-03-16T05:42:16.312Z,1.45
2023-03-16T05:45:20.034Z,1.90
2023-03-16T05:48:27.089Z,1.60
2023-03-16T05:51:30.371Z,2.05
2023-03-16T05:54:33.429Z,1.02
2023-03-16T05:57:36.874Z,1.10
2023-03-16T06:00:42.910Z,2.35
2023-03-16T06:03:48.870Z,2.05
2023-03-16T06:06:52.434Z,0.95
2023-03-16T06:12:59.860Z,1.25
2023-03-16T06:16:03.186Z,2.05
2023-03-16T06:19:06.396Z,2.40
2023-03-16T06:22:09.616Z,1.80
2023-03-16T06:25:14.964Z,2.70
2023-03-16T06:28:18.442Z,1.80
2023-03-16T06:31:21.437Z,1.12
2023-03-16T06:34:24.802Z,1.25
2023-03-16T06:37:28.657Z,1.55
2023-03-16T06:40:33.568Z,0.95
2023-03-16T06:43:36.871Z,1.23
2023-03-16T06:46:39.984Z,1.40
2023-03-16T06:49:42.993Z,1.48
2023-03-16T06:52:49.262Z,1.33
2023-03-16T06:55:51.901Z,1.37
2023-03-16T06:58:55.030Z,0.88
2023-03-16T07:01:57.906Z,1.00
2023-03-16T07:05:01.204Z,1.58
2023-03-16T07:08:04.982Z,0.73
2023-03-16T07:11:08.695Z,1.35
2023-03-16T07:17:15.351Z,2.20
2023-03-16T07:20:18.934Z,1.48
2023-03-16T07:23:22.276Z,1.33
2023-03-16T07:26:25.314Z,1.87
2023-03-16T07:29:28.724Z,2.17
2023-03-16T07:32:32.576Z,1.62
2023-03-16T07:35:36.296Z,1.50
2023-03-16T07:38:39.945Z,1.73
2023-03-16T07:41:42.980Z,1.87
2023-03-16T07:44:51.698Z,1.80
2023-03-16T07:47:54.844Z,1.35
2023-03-16T07:50:58.162Z,2.60
2023-03-16T07:54:01.063Z,1.60
2023-03-16T07:57:04.947Z,1.40
2023-03-16T08:00:10.481Z,1.55
2023-03-16T08:03:15.407Z,1.02
2023-03-16T08:06:21.399Z,1.62
2023-03-16T08:09:24.245Z,1.70
2023-03-16T08:12:27.695Z,1.70
2023-03-16T08:15:33.143Z,1.75
2023-03-16T08:18:37.646Z,2.20
2023-03-16T08:21:59.771Z,1.05
2023-03-16T08:25:06.340Z,1.77
2023-03-16T08:28:09.578Z,1.48
2023-03-16T08:31:14.923Z,1.87
2023-03-16T08:34:18.506Z,1.45
2023-03-16T08:37:22.143Z,2.30
2023-03-16T08:40:29.730Z,1.83
2023-03-16T08:43:34.792Z,1.00
2023-03-16T08:46:37.528Z,1.55
2023-03-16T08:55:48.397Z,1.52
2023-03-16T08:58:51.627Z,1.60
2023-03-16T09:01:54.549Z,1.33
2023-03-16T09:04:57.275Z,2.12
2023-03-16T09:08:01.596Z,1.10
2023-03-16T09:11:07.611Z,0.98
2023-03-16T09:14:11.849Z,0.93
2023-03-16T09:17:14.918Z,1.83
2023-03-16T09:20:22.682Z,2.15
2023-03-16T09:23:31.014Z,1.33
2023-03-16T09:26:35.180Z,1.67
2023-03-16T09:29:37.781Z,1.60
2023-03-16T09:32:40.754Z,2.50
2023-03-16T09:35:45.766Z,1.83
2023-03-16T09:38:48.946Z,1.08
2023-03-16T09:42:17.380Z,1.25
2023-03-16T09:45:38.555Z,1.60
2023-03-16T09:48:42.293Z,1.85
2023-03-16T09:51:53.882Z,1.60
2023-03-16T09:55:28.923Z,1.52
2023-03-16T09:58:36.564Z,1.25
2023-03-16T10:02:04.451Z,1.40
2023-03-16T10:05:13.514Z,1.17
2023-03-16T10:08:22.470Z,1.58
2023-03-16T10:11:44.005Z,0.65
2023-03-16T10:14:58.263Z,0.82
2023-03-16T10:18:06.581Z,1.27
2023-03-16T10:21:18.485Z,1.42
2023-03-16T10:24:34.343Z,1.33
2023-03-16T10:27:40.075Z,1.37
2023-03-16T10:30:44.056Z,0.88
2023-03-16T10:33:48.061Z,1.12
2023-03-16T10:36:53.250Z,1.45
2023-03-16T10:39:56.518Z,1.40
2023-03-16T10:43:14.156Z,1.20
2023-03-16T10:46:17.900Z,1.10
2023-03-16T10:49:42.279Z,1.00
2023-03-16T10:52:48.122Z,0.88
2023-03-16T10:55:59.012Z,0.98
2023-03-16T10:59:02.940Z,1.23
2023-03-16T11:02:17.418Z,1.12
2023-03-16T11:05:34.230Z,1.30
2023-03-16T11:08:41.886Z,0.80
2023-03-16T11:11:49.546Z,1.33
2023-03-16T11:14:54.093Z,1.00
2023-03-16T11:17:56.958Z,1.05
2023-03-16T11:21:08.577Z,1.23
2023-03-16T11:24:21.059Z,1.08
2023-03-16T11:27:30.363Z,1.10
2023-03-16T11:31:01.537Z,1.52
2023-03-16T11:34:20.099Z,1.02
2023-03-16T11:37:48.193Z,0.88
2023-03-16T11:41:03.193Z,0.95
2023-03-16T11:44:13.904Z,0.65
2023-03-16T11:47:50.974Z,0.90
2023-03-16T11:51:09.607Z,1.10
2023-03-16T11:54:21.357Z,1.00
2023-03-16T11:57:42.707Z,0.60
2023-03-16T12:00:52.805Z,1.17
2023-03-16T12:04:08.040Z,0.82
2023-03-16T12:07:25.943Z,1.00
2023-03-16T12:10:49.822Z,0.77
2023-03-16T12:17:10.984Z,1.27
2023-03-16T12:20:18.630Z,0.75
2023-03-16T12:23:29.764Z,0.60
2023-03-16T12:26:39.869Z,0.88
2023-03-16T12:29:56.979Z,0.93
2023-03-16T12:33:08.756Z,0.98
2023-03-16T12:36:30.965Z,0.70
2023-03-16T12:39:48.806Z,0.62
2023-03-16T12:43:01.483Z,0.45
2023-03-16T12:46:07.354Z,0.35
2023-03-16T12:49:11.403Z,0.60
2023-03-16T12:52:14.938Z,0.28
2023-03-16T12:55:18.850Z,0.37
2023-03-16T12:58:24.559Z,0.62
2023-03-16T13:01:37.534Z,0.85
2023-03-16T13:04:43.185Z,0.40
2023-03-16T13:07:49.543Z,0.62
2023-03-16T13:11:05.422Z,0.50
2023-03-16T13:14:12.822Z,0.55
2023-03-16T13:17:15.473Z,0.32
2023-03-16T13:20:31.835Z,0.60
2023-03-16T13:23:54.391Z,0.50
2023-03-16T13:27:06.580Z,0.37
2023-03-16T13:30:25.688Z,0.57
2023-03-16T13:33:33.028Z,0.70
2023-03-16T13:36:37.148Z,0.60
2023-03-16T13:39:40.735Z,0.40
2023-03-16T13:42:48.065Z,0.62
2023-03-16T13:45:52.054Z,0.43
2023-03-16T13:48:58.541Z,0.60
2023-03-16T13:52:03.837Z,0.52
2023-03-16T13:55:16.235Z,0.50
2023-03-16T13:58:21.574Z,0.80
2023-03-16T14:01:27.992Z,0.50
2023-03-16T14:04:33.966Z,0.55
2023-03-16T14:07:38.887Z,0.70
2023-03-16T14:10:43.687Z,0.70
2023-03-16T14:13:53.953Z,0.68
2023-03-16T14:17:10.973Z,0.68
2023-03-16T14:20:28.734Z,0.50
2023-03-16T14:23:37.745Z,0.77
2023-03-16T14:26:46.057Z,0.60
2023-03-16T14:30:24.142Z,0.50
2023-03-16T14:33:30.837Z,0.55
2023-03-16T14:36:36.599Z,0.57
2023-03-16T14:39:42.368Z,0.40
2023-03-16T14:42:45.710Z,0.40
2023-03-16T14:45:48.368Z,0.52
2023-03-16T14:48:51.311Z,0.65
2023-03-16T14:51:59.280Z,0.50
2023-03-16T14:55:12.096Z,0.57
2023-03-16T14:58:14.795Z,0.60
2023-03-16T15:01:20.540Z,0.50
2023-03-16T15:04:31.339Z,0.60
2023-03-16T15:07:38.030Z,0.40
2023-03-16T15:10:41.052Z,0.60
2023-03-16T15:13:53.736Z,0.52
2023-03-16T15:16:56.821Z,0.50
2023-03-16T15:19:59.807Z,0.45
2023-03-16T15:23:04.893Z,0.47
2023-03-16T15:26:14.264Z,0.40
2023-03-16T15:29:19.775Z,0.80
2023-03-16T15:32:23.331Z,0.60
2023-03-16T15:35:26.842Z,0.50
2023-03-16T15:38:39.788Z,0.45
2023-03-16T15:41:47.678Z,0.62
2023-03-16T15:44:51.059Z,0.40
2023-03-16T15:47:53.904Z,0.50
2023-03-16T15:51:02.338Z,0.50
2023-03-16T15:54:08.602Z,0.60
2023-03-16T15:57:12.888Z,0.50
2023-03-16T16:00:42.160Z,0.55
2023-03-16T16:03:45.982Z,0.68
2023-03-16T16:06:49.720Z,0.32
2023-03-16T16:09:57.057Z,0.50
2023-03-16T16:13:01.463Z,0.40
2023-03-16T16:16:04.742Z,0.60
2023-03-16T16:22:14.096Z,0.65
2023-03-16T16:25:17.467Z,0.35
2023-03-16T16:28:23.695Z,0.60
2023-03-16T16:31:30.564Z,0.20
2023-03-16T16:34:33.607Z,0.60
2023-03-16T16:37:36.257Z,0.60
